sensor_id;sensor_type;location;lat;lon;timestamp;pressure;altitude;pressure_sealevel;temperature;humidity
42705;BME280;28342;42.594;23.414;2022-11-20T00:01:07;93795.25;;;12.85;86.65
42705;BME280;28342;42.594;23.414;2022-11-20T00:03:33;93790.78;;;13.17;81.28
42705;BME280;28342;42.594;23.414;2022-11-20T00:06:10;93776.63;;;13.88;78.01
42705;BME280;28342;42.594;23.414;2022-11-20T00:08:37;93796.28;;;14.31;75.98
42705;BME280;28342;42.594;23.414;2022-11-20T00:11:08;93793.09;;;14.41;77.45
42705;BME280;28342;42.594;23.414;2022-11-20T00:13:35;93795.50;;;14.81;73.23
42705;BME280;28342;42.594;23.414;2022-11-20T00:16:05;93808.34;;;15.14;71.56
42705;BME280;28342;42.594;23.414;2022-11-20T00:18:34;93793.53;;;15.36;69.84
42705;BME280;28342;42.594;23.414;2022-11-20T00:21:04;93791.44;;;15.68;68.41
42705;BME280;28342;42.594;23.414;2022-11-20T00:23:31;93790.47;;;16.03;66.04
42705;BME280;28342;42.594;23.414;2022-11-20T00:26:01;93771.03;;;16.06;64.92
42705;BME280;28342;42.594;23.414;2022-11-20T00:28:27;93765.63;;;16.25;65.53
42705;BME280;28342;42.594;23.414;2022-11-20T00:31:00;93772.88;;;16.25;66.84
42705;BME280;28342;42.594;23.414;2022-11-20T00:33:46;93754.78;;;16.18;64.36
42705;BME280;28342;42.594;23.414;2022-11-20T00:36:17;93750.16;;;16.15;65.46
42705;BME280;28342;42.594;23.414;2022-11-20T00:38:44;93763.63;;;16.22;63.74
42705;BME280;28342;42.594;23.414;2022-11-20T00:41:14;93768.28;;;16.25;65.75
42705;BME280;28342;42.594;23.414;2022-11-20T00:43:40;93785.38;;;16.43;63.19
42705;BME280;28342;42.594;23.414;2022-11-20T00:46:12;93754.59;;;16.30;64.62
42705;BME280;28342;42.594;23.414;2022-11-20T00:48:39;93756.34;;;16.46;63.18
42705;BME280;28342;42.594;23.414;2022-11-20T00:51:11;93780.94;;;16.55;63.43
42705;BME280;28342;42.594;23.414;2022-11-20T00:53:40;93788.97;;;16.55;63.16
42705;BME280;28342;42.594;23.414;2022-11-20T00:56:12;93785.47;;;16.51;65.00
42705;BME280;28342;42.594;23.414;2022-11-20T00:58:41;93779.69;;;16.49;62.66
42705;BME280;28342;42.594;23.414;2022-11-20T01:01:13;93783.19;;;16.53;63.43
42705;BME280;28342;42.594;23.414;2022-11-20T01:03:42;93807.75;;;16.58;65.54
42705;BME280;28342;42.594;23.414;2022-11-20T01:06:16;93792.16;;;16.37;66.15
42705;BME280;28342;42.594;23.414;2022-11-20T01:08:45;93780.97;;;16.05;67.36
42705;BME280;28342;42.594;23.414;2022-11-20T01:11:14;93797.91;;;16.13;66.31
42705;BME280;28342;42.594;23.414;2022-11-20T01:13:41;93775.47;;;15.95;67.50
42705;BME280;28342;42.594;23.414;2022-11-20T01:18:39;93765.94;;;15.74;68.40
42705;BME280;28342;42.594;23.414;2022-11-20T01:21:11;93763.88;;;15.64;68.77
42705;BME280;28342;42.594;23.414;2022-11-20T01:23:42;93777.34;;;15.71;69.46
42705;BME280;28342;42.594;23.414;2022-11-20T01:26:18;93778.06;;;15.68;67.96
42705;BME280;28342;42.594;23.414;2022-11-20T01:28:45;93756.78;;;15.75;64.66
42705;BME280;28342;42.594;23.414;2022-11-20T01:31:30;93732.50;;;15.84;63.38
42705;BME280;28342;42.594;23.414;2022-11-20T01:34:02;93729.97;;;16.21;64.81
42705;BME280;28342;42.594;23.414;2022-11-20T01:36:29;93724.94;;;16.42;62.47
42705;BME280;28342;42.594;23.414;2022-11-20T01:38:58;93714.25;;;16.42;62.92
42705;BME280;28342;42.594;23.414;2022-11-20T01:41:26;93715.66;;;16.36;63.64
42705;BME280;28342;42.594;23.414;2022-11-20T01:44:17;93716.88;;;16.39;61.76
42705;BME280;28342;42.594;23.414;2022-11-20T01:47:11;93720.03;;;16.75;59.41
42705;BME280;28342;42.594;23.414;2022-11-20T01:49:57;93720.97;;;16.89;60.10
42705;BME280;28342;42.594;23.414;2022-11-20T01:52:36;93710.97;;;16.86;59.29
42705;BME280;28342;42.594;23.414;2022-11-20T01:55:10;93720.16;;;16.85;59.05
42705;BME280;28342;42.594;23.414;2022-11-20T01:57:38;93718.69;;;16.91;59.97
42705;BME280;28342;42.594;23.414;2022-11-20T02:00:10;93716.16;;;16.72;60.92
42705;BME280;28342;42.594;23.414;2022-11-20T02:02:44;93721.06;;;17.00;58.62
42705;BME280;28342;42.594;23.414;2022-11-20T02:05:26;93714.06;;;16.88;60.19
42705;BME280;28342;42.594;23.414;2022-11-20T02:07:59;93733.28;;;16.97;60.02
42705;BME280;28342;42.594;23.414;2022-11-20T02:10:27;93742.38;;;16.89;60.76
42705;BME280;28342;42.594;23.414;2022-11-20T02:12:55;93743.94;;;16.90;60.87
42705;BME280;28342;42.594;23.414;2022-11-20T02:15:39;93746.88;;;16.82;62.11
42705;BME280;28342;42.594;23.414;2022-11-20T02:18:06;93745.25;;;16.73;62.36
42705;BME280;28342;42.594;23.414;2022-11-20T02:20:32;93742.63;;;16.51;64.33
42705;BME280;28342;42.594;23.414;2022-11-20T02:23:12;93739.50;;;16.45;63.63
42705;BME280;28342;42.594;23.414;2022-11-20T02:25:43;93728.84;;;16.22;64.34
42705;BME280;28342;42.594;23.414;2022-11-20T02:28:13;93735.44;;;16.28;65.89
42705;BME280;28342;42.594;23.414;2022-11-20T02:30:39;93746.03;;;16.21;62.56
42705;BME280;28342;42.594;23.414;2022-11-20T02:33:06;93769.09;;;16.29;63.59
42705;BME280;28342;42.594;23.414;2022-11-20T02:38:02;93747.56;;;16.22;62.09
42705;BME280;28342;42.594;23.414;2022-11-20T02:40:32;93757.50;;;16.48;60.93
42705;BME280;28342;42.594;23.414;2022-11-20T02:43:08;93756.78;;;16.51;61.88
42705;BME280;28342;42.594;23.414;2022-11-20T02:45:39;93747.59;;;16.79;58.90
42705;BME280;28342;42.594;23.414;2022-11-20T02:48:09;93719.28;;;16.78;58.88
42705;BME280;28342;42.594;23.414;2022-11-20T02:50:38;93730.88;;;16.85;59.05
42705;BME280;28342;42.594;23.414;2022-11-20T02:53:05;93775.50;;;17.08;58.92
42705;BME280;28342;42.594;23.414;2022-11-20T02:55:31;93755.63;;;17.09;58.54
42705;BME280;28342;42.594;23.414;2022-11-20T02:57:57;93760.50;;;17.33;57.06
42705;BME280;28342;42.594;23.414;2022-11-20T03:00:22;93781.94;;;17.33;57.92
42705;BME280;28342;42.594;23.414;2022-11-20T03:02:50;93779.69;;;17.39;57.35
42705;BME280;28342;42.594;23.414;2022-11-20T03:05:15;93789.78;;;17.52;57.10
42705;BME280;28342;42.594;23.414;2022-11-20T03:07:44;93774.72;;;17.41;56.48
42705;BME280;28342;42.594;23.414;2022-11-20T03:10:11;93792.97;;;17.61;57.70
42705;BME280;28342;42.594;23.414;2022-11-20T03:12:41;93780.53;;;17.46;57.86
42705;BME280;28342;42.594;23.414;2022-11-20T03:15:10;93764.59;;;17.23;59.48
42705;BME280;28342;42.594;23.414;2022-11-20T03:17:36;93787.09;;;17.52;57.18
42705;BME280;28342;42.594;23.414;2022-11-20T03:20:07;93792.22;;;17.65;57.51
42705;BME280;28342;42.594;23.414;2022-11-20T03:22:38;93811.34;;;17.63;58.08
42705;BME280;28342;42.594;23.414;2022-11-20T03:25:04;93794.44;;;17.59;56.47
42705;BME280;28342;42.594;23.414;2022-11-20T03:27:34;93796.75;;;17.60;56.87
42705;BME280;28342;42.594;23.414;2022-11-20T03:30:00;93799.84;;;17.62;57.35
42705;BME280;28342;42.594;23.414;2022-11-20T03:32:25;93807.91;;;17.62;58.13
42705;BME280;28342;42.594;23.414;2022-11-20T03:34:54;93820.47;;;17.58;58.67
42705;BME280;28342;42.594;23.414;2022-11-20T03:37:22;93824.25;;;17.50;58.25
42705;BME280;28342;42.594;23.414;2022-11-20T03:39:48;93812.03;;;17.56;57.74
42705;BME280;28342;42.594;23.414;2022-11-20T03:42:14;93805.06;;;17.48;57.35
42705;BME280;28342;42.594;23.414;2022-11-20T03:44:59;93813.56;;;17.57;58.09
42705;BME280;28342;42.594;23.414;2022-11-20T03:47:27;93793.97;;;17.50;58.67
42705;BME280;28342;42.594;23.414;2022-11-20T03:49:55;93788.22;;;17.48;58.38
42705;BME280;28342;42.594;23.414;2022-11-20T03:52:23;93781.34;;;17.50;57.94
42705;BME280;28342;42.594;23.414;2022-11-20T03:54:50;93783.72;;;17.59;58.19
42705;BME280;28342;42.594;23.414;2022-11-20T03:57:18;93807.56;;;17.68;58.26
42705;BME280;28342;42.594;23.414;2022-11-20T03:59:44;93804.41;;;17.58;58.51
42705;BME280;28342;42.594;23.414;2022-11-20T04:02:14;93790.47;;;17.46;58.36
42705;BME280;28342;42.594;23.414;2022-11-20T04:04:40;93805.72;;;17.38;59.80
42705;BME280;28342;42.594;23.414;2022-11-20T04:07:08;93812.13;;;17.30;58.03
42705;BME280;28342;42.594;23.414;2022-11-20T04:09:35;93812.47;;;17.25;59.46
42705;BME280;28342;42.594;23.414;2022-11-20T04:12:02;93817.19;;;17.35;57.37
42705;BME280;28342;42.594;23.414;2022-11-20T04:14:35;93805.97;;;17.26;57.69
42705;BME280;28342;42.594;23.414;2022-11-20T04:17:16;93804.22;;;17.41;57.48
42705;BME280;28342;42.594;23.414;2022-11-20T04:23:04;93813.81;;;17.45;57.61
42705;BME280;28342;42.594;23.414;2022-11-20T04:26:48;93837.66;;;17.50;58.32
42705;BME280;28342;42.594;23.414;2022-11-20T04:30:13;93841.69;;;17.33;60.54
42705;BME280;28342;42.594;23.414;2022-11-20T04:33:10;93846.84;;;17.19;61.70
42705;BME280;28342;42.594;23.414;2022-11-20T04:35:42;93842.31;;;17.23;62.94
42705;BME280;28342;42.594;23.414;2022-11-20T04:42:23;93841.13;;;17.21;63.20
42705;BME280;28342;42.594;23.414;2022-11-20T04:45:52;93834.88;;;17.10;63.27
42705;BME280;28342;42.594;23.414;2022-11-20T04:49:04;93846.81;;;17.16;63.97
42705;BME280;28342;42.594;23.414;2022-11-20T04:52:19;93818.47;;;17.15;64.38
42705;BME280;28342;42.594;23.414;2022-11-20T04:54:50;93797.56;;;16.97;64.46
42705;BME280;28342;42.594;23.414;2022-11-20T04:57:52;93835.94;;;17.01;64.94
42705;BME280;28342;42.594;23.414;2022-11-20T05:00:28;93835.41;;;16.92;63.83
42705;BME280;28342;42.594;23.414;2022-11-20T05:03:35;93843.00;;;16.87;64.35
42705;BME280;28342;42.594;23.414;2022-11-20T05:06:26;93846.34;;;16.80;65.80
42705;BME280;28342;42.594;23.414;2022-11-20T05:09:30;93848.72;;;16.85;68.21
42705;BME280;28342;42.594;23.414;2022-11-20T05:11:59;93833.56;;;16.43;74.10
42705;BME280;28342;42.594;23.414;2022-11-20T05:14:50;93821.72;;;16.22;78.13
42705;BME280;28342;42.594;23.414;2022-11-20T05:17:22;93822.22;;;16.04;76.43
42705;BME280;28342;42.594;23.414;2022-11-20T05:19:53;93829.00;;;15.98;77.48
42705;BME280;28342;42.594;23.414;2022-11-20T05:22:34;93826.56;;;15.90;76.33
42705;BME280;28342;42.594;23.414;2022-11-20T05:25:05;93831.50;;;15.88;77.73
42705;BME280;28342;42.594;23.414;2022-11-20T05:27:54;93828.09;;;15.91;77.63
42705;BME280;28342;42.594;23.414;2022-11-20T05:30:21;93812.91;;;15.95;77.03
42705;BME280;28342;42.594;23.414;2022-11-20T05:33:13;93792.44;;;15.60;77.56
42705;BME280;28342;42.594;23.414;2022-11-20T05:36:15;93822.34;;;15.66;78.22
42705;BME280;28342;42.594;23.414;2022-11-20T05:38:51;93844.34;;;15.78;77.46
42705;BME280;28342;42.594;23.414;2022-11-20T05:41:19;93821.28;;;15.70;76.77
42705;BME280;28342;42.594;23.414;2022-11-20T05:43:47;93832.63;;;15.87;77.31
42705;BME280;28342;42.594;23.414;2022-11-20T05:46:17;93822.09;;;15.74;77.36
42705;BME280;28342;42.594;23.414;2022-11-20T05:48:45;93837.56;;;15.84;76.80
42705;BME280;28342;42.594;23.414;2022-11-20T05:51:24;93847.69;;;15.75;75.72
42705;BME280;28342;42.594;23.414;2022-11-20T05:53:59;93866.84;;;15.77;75.11
42705;BME280;28342;42.594;23.414;2022-11-20T05:56:26;93838.44;;;15.69;76.78
42705;BME280;28342;42.594;23.414;2022-11-20T05:59:04;93840.81;;;15.74;76.53
42705;BME280;28342;42.594;23.414;2022-11-20T06:01:39;93827.44;;;15.74;76.74
42705;BME280;28342;42.594;23.414;2022-11-20T06:04:16;93827.59;;;15.81;76.07
42705;BME280;28342;42.594;23.414;2022-11-20T06:06:42;93797.78;;;15.60;75.52
42705;BME280;28342;42.594;23.414;2022-11-20T06:09:14;93803.28;;;15.67;76.61
42705;BME280;28342;42.594;23.414;2022-11-20T06:11:47;93770.44;;;15.47;75.66
42705;BME280;28342;42.594;23.414;2022-11-20T06:14:18;93790.81;;;15.55;76.09
42705;BME280;28342;42.594;23.414;2022-11-20T06:16:52;93802.91;;;15.69;75.63
42705;BME280;28342;42.594;23.414;2022-11-20T06:19:24;93803.75;;;15.73;75.27
42705;BME280;28342;42.594;23.414;2022-11-20T06:21:50;93819.97;;;15.83;74.36
42705;BME280;28342;42.594;23.414;2022-11-20T06:24:17;93821.75;;;15.76;75.14
42705;BME280;28342;42.594;23.414;2022-11-20T06:26:44;93810.28;;;15.75;75.26
42705;BME280;28342;42.594;23.414;2022-11-20T06:29:13;93834.81;;;16.04;74.75
42705;BME280;28342;42.594;23.414;2022-11-20T06:31:38;93835.97;;;16.03;75.08
42705;BME280;28342;42.594;23.414;2022-11-20T06:34:13;93826.56;;;15.90;73.50
42705;BME280;28342;42.594;23.414;2022-11-20T06:36:40;93835.97;;;16.03;74.00
42705;BME280;28342;42.594;23.414;2022-11-20T06:39:05;93824.94;;;16.08;73.38
42705;BME280;28342;42.594;23.414;2022-11-20T06:41:31;93844.66;;;15.96;73.73
42705;BME280;28342;42.594;23.414;2022-11-20T06:43:57;93827.41;;;15.94;74.24
42705;BME280;28342;42.594;23.414;2022-11-20T06:46:46;93831.31;;;16.00;74.48
42705;BME280;28342;42.594;23.414;2022-11-20T06:49:13;93819.03;;;15.95;74.17
42705;BME280;28342;42.594;23.414;2022-11-20T06:51:39;93846.06;;;16.13;75.77
42705;BME280;28342;42.594;23.414;2022-11-20T06:54:05;93833.28;;;16.03;73.33
42705;BME280;28342;42.594;23.414;2022-11-20T06:56:31;93849.16;;;16.15;73.09
42705;BME280;28342;42.594;23.414;2022-11-20T06:58:58;93840.94;;;16.27;72.90
42705;BME280;28342;42.594;23.414;2022-11-20T07:02:16;93845.44;;;16.23;74.42
42705;BME280;28342;42.594;23.414;2022-11-20T07:04:41;93864.41;;;16.37;73.92
42705;BME280;28342;42.594;23.414;2022-11-20T07:07:08;93870.72;;;16.49;74.91
42705;BME280;28342;42.594;23.414;2022-11-20T07:10:12;93851.94;;;16.45;72.69
42705;BME280;28342;42.594;23.414;2022-11-20T07:13:22;93850.63;;;16.62;73.46
42705;BME280;28342;42.594;23.414;2022-11-20T07:16:09;93856.00;;;16.62;72.88
42705;BME280;28342;42.594;23.414;2022-11-20T07:18:56;93867.88;;;16.64;72.70
42705;BME280;28342;42.594;23.414;2022-11-20T07:21:53;93848.38;;;16.64;72.83
42705;BME280;28342;42.594;23.414;2022-11-20T07:24:39;93863.75;;;16.67;71.73
42705;BME280;28342;42.594;23.414;2022-11-20T07:27:05;93848.59;;;16.78;71.31
42705;BME280;28342;42.594;23.414;2022-11-20T07:29:50;93866.22;;;16.79;70.90
42705;BME280;28342;42.594;23.414;2022-11-20T07:32:15;93856.31;;;16.83;68.90
42705;BME280;28342;42.594;23.414;2022-11-20T07:34:52;93840.13;;;16.72;71.45
42705;BME280;28342;42.594;23.414;2022-11-20T07:37:17;93856.63;;;16.78;67.81
42705;BME280;28342;42.594;23.414;2022-11-20T07:39:43;93856.63;;;16.78;67.96
42705;BME280;28342;42.594;23.414;2022-11-20T07:42:09;93842.44;;;16.74;67.46
42705;BME280;28342;42.594;23.414;2022-11-20T07:44:36;93845.69;;;16.87;68.65
42705;BME280;28342;42.594;23.414;2022-11-20T07:47:16;93831.00;;;16.77;68.98
42705;BME280;28342;42.594;23.414;2022-11-20T07:50:20;93860.44;;;17.03;70.10
42705;BME280;28342;42.594;23.414;2022-11-20T07:52:46;93850.34;;;16.93;70.68
42705;BME280;28342;42.594;23.414;2022-11-20T07:55:23;93847.16;;;16.84;69.79
42705;BME280;28342;42.594;23.414;2022-11-20T07:58:15;93843.78;;;16.87;70.66
42705;BME280;28342;42.594;23.414;2022-11-20T08:00:53;93828.06;;;16.86;71.20
42705;BME280;28342;42.594;23.414;2022-11-20T08:03:49;93858.94;;;17.06;71.15
42705;BME280;28342;42.594;23.414;2022-11-20T08:06:55;93831.03;;;16.81;66.94
42705;BME280;28342;42.594;23.414;2022-11-20T08:09:44;93847.25;;;16.91;67.61
42705;BME280;28342;42.594;23.414;2022-11-20T08:12:29;93844.22;;;16.93;70.05
42705;BME280;28342;42.594;23.414;2022-11-20T08:15:14;93845.00;;;16.93;67.52
42705;BME280;28342;42.594;23.414;2022-11-20T08:17:40;93841.19;;;16.94;66.70
42705;BME280;28342;42.594;23.414;2022-11-20T08:20:08;93839.81;;;17.08;65.44
42705;BME280;28342;42.594;23.414;2022-11-20T08:23:07;93842.50;;;17.08;65.97
42705;BME280;28342;42.594;23.414;2022-11-20T08:25:37;93812.97;;;17.04;66.29
42705;BME280;28342;42.594;23.414;2022-11-20T08:28:14;93832.75;;;17.26;65.31
42705;BME280;28342;42.594;23.414;2022-11-20T08:30:40;93823.16;;;17.21;66.75
42705;BME280;28342;42.594;23.414;2022-11-20T08:37:26;93850.25;;;17.46;65.75
42705;BME280;28342;42.594;23.414;2022-11-20T08:40:37;93846.44;;;17.47;65.13
42705;BME280;28342;42.594;23.414;2022-11-20T08:47:21;93858.88;;;17.66;65.40
42705;BME280;28342;42.594;23.414;2022-11-20T08:53:42;93885.88;;;17.77;65.85
42705;BME280;28342;42.594;23.414;2022-11-20T08:57:23;93891.63;;;17.79;65.79
42705;BME280;28342;42.594;23.414;2022-11-20T08:59:56;93877.72;;;17.70;64.47
42705;BME280;28342;42.594;23.414;2022-11-20T09:02:26;93880.91;;;17.79;63.24
42705;BME280;28342;42.594;23.414;2022-11-20T09:05:40;93888.81;;;17.68;65.04
42705;BME280;28342;42.594;23.414;2022-11-20T09:08:34;93894.78;;;17.58;65.20
42705;BME280;28342;42.594;23.414;2022-11-20T09:11:30;93882.09;;;17.51;66.55
42705;BME280;28342;42.594;23.414;2022-11-20T09:14:04;93885.56;;;17.55;66.40
42705;BME280;28342;42.594;23.414;2022-11-20T09:16:31;93877.72;;;17.40;65.83
42705;BME280;28342;42.594;23.414;2022-11-20T09:18:58;93901.25;;;17.53;67.32
42705;BME280;28342;42.594;23.414;2022-11-20T09:21:24;93899.22;;;17.43;64.85
42705;BME280;28342;42.594;23.414;2022-11-20T09:23:52;93883.19;;;17.47;66.77
42705;BME280;28342;42.594;23.414;2022-11-20T09:26:52;93887.25;;;17.33;68.96
42705;BME280;28342;42.594;23.414;2022-11-20T09:30:33;93884.78;;;17.51;68.17
42705;BME280;28342;42.594;23.414;2022-11-20T09:33:25;93892.22;;;17.65;67.15
42705;BME280;28342;42.594;23.414;2022-11-20T09:36:01;93882.56;;;17.60;67.25
42705;BME280;28342;42.594;23.414;2022-11-20T09:39:15;93898.63;;;17.57;67.72
42705;BME280;28342;42.594;23.414;2022-11-20T09:45:46;93888.09;;;17.71;67.66
42705;BME280;28342;42.594;23.414;2022-11-20T09:51:35;93884.72;;;17.78;67.32
42705;BME280;28342;42.594;23.414;2022-11-20T09:56:43;93885.59;;;17.89;66.33
42705;BME280;28342;42.594;23.414;2022-11-20T09:59:56;93859.03;;;17.77;67.52
42705;BME280;28342;42.594;23.414;2022-11-20T10:02:37;93866.00;;;17.85;68.77
42705;BME280;28342;42.594;23.414;2022-11-20T10:05:49;93873.72;;;17.90;68.41
42705;BME280;28342;42.594;23.414;2022-11-20T10:12:04;93845.06;;;17.64;70.70
42705;BME280;28342;42.594;23.414;2022-11-20T10:15:28;93834.47;;;17.75;73.22
42705;BME280;28342;42.594;23.414;2022-11-20T10:21:46;93825.84;;;17.58;73.47
42705;BME280;28342;42.594;23.414;2022-11-20T10:28:46;93816.44;;;17.72;72.84
42705;BME280;28342;42.594;23.414;2022-11-20T10:32:20;93818.97;;;17.61;68.53
42705;BME280;28342;42.594;23.414;2022-11-20T10:39:24;93817.56;;;17.71;68.91
42705;BME280;28342;42.594;23.414;2022-11-20T10:42:02;93806.84;;;17.71;67.13
42705;BME280;28342;42.594;23.414;2022-11-20T10:48:53;93790.06;;;17.77;66.65
42705;BME280;28342;42.594;23.414;2022-11-20T10:55:44;93796.25;;;17.85;65.54
42705;BME280;28342;42.594;23.414;2022-11-20T10:58:20;93787.69;;;17.69;63.88
42705;BME280;28342;42.594;23.414;2022-11-20T11:00:50;93783.09;;;17.73;63.50
42705;BME280;28342;42.594;23.414;2022-11-20T11:03:27;93806.31;;;17.95;63.28
42705;BME280;28342;42.594;23.414;2022-11-20T11:09:38;93832.06;;;18.03;64.77
42705;BME280;28342;42.594;23.414;2022-11-20T11:12:09;93817.38;;;17.90;66.98
42705;BME280;28342;42.594;23.414;2022-11-20T11:14:51;93848.09;;;17.92;68.55
42705;BME280;28342;42.594;23.414;2022-11-20T11:17:53;93877.06;;;17.80;71.11
42705;BME280;28342;42.594;23.414;2022-11-20T11:20:54;93896.09;;;17.38;73.94
42705;BME280;28342;42.594;23.414;2022-11-20T11:23:37;93881.88;;;17.03;77.66
42705;BME280;28342;42.594;23.414;2022-11-20T11:26:24;93903.41;;;17.11;77.32
42705;BME280;28342;42.594;23.414;2022-11-20T11:29:16;93894.19;;;16.82;79.67
42705;BME280;28342;42.594;23.414;2022-11-20T11:32:12;93903.22;;;16.70;80.98
42705;BME280;28342;42.594;23.414;2022-11-20T11:34:39;93900.28;;;16.56;81.84
42705;BME280;28342;42.594;23.414;2022-11-20T11:37:13;93925.16;;;16.33;83.17
42705;BME280;28342;42.594;23.414;2022-11-20T11:39:41;93975.63;;;16.35;83.09
42705;BME280;28342;42.594;23.414;2022-11-20T11:42:33;94006.66;;;16.17;86.92
42705;BME280;28342;42.594;23.414;2022-11-20T11:45:14;93994.59;;;15.49;89.01
42705;BME280;28342;42.594;23.414;2022-11-20T11:47:47;93989.66;;;15.16;78.03
42705;BME280;28342;42.594;23.414;2022-11-20T11:54:03;93954.47;;;14.31;79.48
42705;BME280;28342;42.594;23.414;2022-11-20T12:00:51;93903.66;;;13.53;87.13
42705;BME280;28342;42.594;23.414;2022-11-20T12:04:42;93912.88;;;13.55;86.93
42705;BME280;28342;42.594;23.414;2022-11-20T12:11:55;93926.53;;;13.54;86.32
42705;BME280;28342;42.594;23.414;2022-11-20T12:49:38;93823.72;;;12.97;95.40
42705;BME280;28342;42.594;23.414;2022-11-20T12:53:08;93797.75;;;13.06;93.40
42705;BME280;28342;42.594;23.414;2022-11-20T13:14:32;93752.38;;;13.62;92.35
42705;BME280;28342;42.594;23.414;2022-11-20T13:18:18;93749.66;;;13.74;92.82
42705;BME280;28342;42.594;23.414;2022-11-20T13:25:48;93786.81;;;13.83;95.33
42705;BME280;28342;42.594;23.414;2022-11-20T13:32:20;93833.47;;;14.08;96.32
42705;BME280;28342;42.594;23.414;2022-11-20T13:45:02;93795.22;;;14.00;96.16
42705;BME280;28342;42.594;23.414;2022-11-20T13:51:45;93841.38;;;13.89;98.27
42705;BME280;28342;42.594;23.414;2022-11-20T14:01:47;93841.31;;;13.85;94.73
42705;BME280;28342;42.594;23.414;2022-11-20T14:08:57;93848.19;;;13.86;91.40
42705;BME280;28342;42.594;23.414;2022-11-20T14:11:29;93855.81;;;13.72;91.65
42705;BME280;28342;42.594;23.414;2022-11-20T14:14:10;93846.91;;;13.80;90.15
42705;BME280;28342;42.594;23.414;2022-11-20T14:16:44;93835.03;;;13.93;91.05
42705;BME280;28342;42.594;23.414;2022-11-20T14:21:51;93847.25;;;13.94;89.83
42705;BME280;28342;42.594;23.414;2022-11-20T14:24:20;93830.81;;;13.92;90.21
42705;BME280;28342;42.594;23.414;2022-11-20T14:26:51;93834.34;;;13.96;91.03
42705;BME280;28342;42.594;23.414;2022-11-20T14:29:43;93843.47;;;13.95;90.83
42705;BME280;28342;42.594;23.414;2022-11-20T14:32:27;93832.97;;;13.87;91.29
42705;BME280;28342;42.594;23.414;2022-11-20T14:35:09;93842.94;;;13.90;91.36
42705;BME280;28342;42.594;23.414;2022-11-20T14:37:54;93832.47;;;13.81;91.42
42705;BME280;28342;42.594;23.414;2022-11-20T14:41:04;93819.28;;;13.72;91.82
42705;BME280;28342;42.594;23.414;2022-11-20T14:43:40;93825.13;;;13.78;91.95
42705;BME280;28342;42.594;23.414;2022-11-20T14:46:32;93848.63;;;13.88;90.98
42705;BME280;28342;42.594;23.414;2022-11-20T15:00:28;93854.56;;;13.82;92.71
42705;BME280;28342;42.594;23.414;2022-11-20T15:03:45;93808.25;;;13.58;91.44
42705;BME280;28342;42.594;23.414;2022-11-20T15:06:12;93855.56;;;13.93;90.95
42705;BME280;28342;42.594;23.414;2022-11-20T15:08:37;93842.31;;;13.65;92.22
42705;BME280;28342;42.594;23.414;2022-11-20T15:11:19;93883.09;;;13.81;91.01
42705;BME280;28342;42.594;23.414;2022-11-20T15:13:48;93885.34;;;13.79;92.90
42705;BME280;28342;42.594;23.414;2022-11-20T15:19:16;93870.44;;;13.34;96.53
42705;BME280;28342;42.594;23.414;2022-11-20T15:22:03;93887.97;;;13.63;94.62
42705;BME280;28342;42.594;23.414;2022-11-20T15:24:51;93890.34;;;13.53;95.22
42705;BME280;28342;42.594;23.414;2022-11-20T15:27:32;93887.72;;;13.40;93.16
42705;BME280;28342;42.594;23.414;2022-11-20T15:30:35;93899.53;;;13.55;92.13
42705;BME280;28342;42.594;23.414;2022-11-20T15:33:32;93886.63;;;13.41;91.93
42705;BME280;28342;42.594;23.414;2022-11-20T15:39:52;93893.75;;;13.37;90.81
42705;BME280;28342;42.594;23.414;2022-11-20T15:52:50;93986.28;;;13.40;91.45
42705;BME280;28342;42.594;23.414;2022-11-20T16:09:23;93983.53;;;12.51;89.93
42705;BME280;28342;42.594;23.414;2022-11-20T16:12:44;93976.56;;;12.59;91.06
42705;BME280;28342;42.594;23.414;2022-11-20T16:16:30;93991.84;;;12.50;90.49
42705;BME280;28342;42.594;23.414;2022-11-20T16:19:39;93996.03;;;12.39;90.78
42705;BME280;28342;42.594;23.414;2022-11-20T16:22:43;93999.59;;;12.31;90.41
42705;BME280;28342;42.594;23.414;2022-11-20T16:25:27;93999.28;;;11.99;90.53
42705;BME280;28342;42.594;23.414;2022-11-20T16:39:45;93984.78;;;11.96;91.33
42705;BME280;28342;42.594;23.414;2022-11-20T16:43:33;93992.16;;;11.91;91.59
42705;BME280;28342;42.594;23.414;2022-11-20T16:47:16;93984.88;;;12.00;92.04
42705;BME280;28342;42.594;23.414;2022-11-20T16:51:02;93968.72;;;12.05;92.62
42705;BME280;28342;42.594;23.414;2022-11-20T16:53:42;93979.47;;;11.96;92.10
42705;BME280;28342;42.594;23.414;2022-11-20T16:56:23;93969.06;;;11.50;93.83
42705;BME280;28342;42.594;23.414;2022-11-20T16:59:04;93937.31;;;11.53;92.53
42705;BME280;28342;42.594;23.414;2022-11-20T17:01:35;93960.69;;;11.81;92.49
42705;BME280;28342;42.594;23.414;2022-11-20T17:04:08;93969.59;;;11.97;92.28
42705;BME280;28342;42.594;23.414;2022-11-20T17:07:04;93963.84;;;11.95;91.89
42705;BME280;28342;42.594;23.414;2022-11-20T17:10:42;93944.13;;;11.96;91.04
42705;BME280;28342;42.594;23.414;2022-11-20T17:14:14;93940.84;;;12.11;90.09
42705;BME280;28342;42.594;23.414;2022-11-20T17:17:10;93955.03;;;12.40;88.46
42705;BME280;28342;42.594;23.414;2022-11-20T17:19:53;93946.19;;;12.36;87.93
42705;BME280;28342;42.594;23.414;2022-11-20T17:22:44;93964.47;;;12.49;88.02
42705;BME280;28342;42.594;23.414;2022-11-20T17:25:12;93963.94;;;12.56;87.45
42705;BME280;28342;42.594;23.414;2022-11-20T17:27:50;93939.09;;;12.64;87.42
42705;BME280;28342;42.594;23.414;2022-11-20T17:30:17;93920.13;;;12.53;88.67
42705;BME280;28342;42.594;23.414;2022-11-20T17:32:48;93904.31;;;12.45;89.10
42705;BME280;28342;42.594;23.414;2022-11-20T17:35:51;93949.63;;;12.61;87.98
42705;BME280;28342;42.594;23.414;2022-11-20T17:38:27;93933.44;;;12.53;87.06